Wednesday, April 24, 2019, 2:46 PM EDT
Back to Local

KAFN, Jaffrey Muni-silver Ranch

Location: Jaffrey, NH, United States Lat: 42.8
Local Time: 2:46 PM EDT (18:46 GMT) Lon: -72
Time Zone: US/Eastern Elev: 1040 ft

Show me the last for .
Show Decoded

2019-04-24 13:52 METAR KAFN 241752Z AUTO 29008G22KT 250V360 10SM CLR 13/03 A2971 RMK AO2 PK WND
                 31026/1734 SLP067 T01280028 10133 20083 50005 =
2019-04-24 12:52 METAR KAFN 241652Z AUTO 32008G23KT 290V350 10SM FEW038 13/03 A2971 RMK AO2
                 SLP067 T01280028 =
2019-04-24 11:52 METAR KAFN 241552Z AUTO 30013G18KT 10SM SCT042 13/03 A2971 RMK AO2 SLP067
                 T01280028 =
2019-04-24 10:52 METAR KAFN 241452Z AUTO 28016G22KT 10SM CLR 12/02 A2969 RMK AO2 SLP062 T01220022
                 51006 =
2019-04-24 09:52 METAR KAFN 241352Z AUTO VRB06G16KT 10SM BKN033 11/03 A2969 RMK AO2 SLP060
                 T01110028 =
2019-04-24 09:14 METAR KAFN 241314Z AUTO 29008G16KT 250V350 10SM FEW022 BKN030 11/04 A2969 RMK
                 AO2 T01110044 =
2019-04-24 08:52 METAR KAFN 241252Z AUTO 10SM BKN023 OVC047 11/06 A2968 RMK AO2 SLP058 T01060061
                 =
2019-04-24 08:08 METAR KAFN 241208Z AUTO 02004KT 5SM BR FEW002 BKN019 OVC040 09/08 A2968 RMK AO2
                 T00940078 =
2019-04-24 07:52 METAR KAFN 241152Z AUTO 00000KT 6SM BR SCT002 SCT020 OVC039 09/08 A2968 RMK AO2
                 SLP055 70007 T00890083 10094 20083 53003 =
2019-04-24 07:46 METAR KAFN 241146Z AUTO 00000KT 3SM BR SCT002 OVC039 09/08 A2967 RMK AO2 =
2019-04-24 07:43 METAR KAFN 241143Z AUTO 00000KT 2SM BR BKN002 OVC039 09/08 A2968 RMK AO2
                 T00890078 =
2019-04-24 07:41 METAR KAFN 241141Z AUTO 00000KT 1 1/4SM BR BKN002 OVC040 09/08 A2968 RMK AO2
                 T00890078 =
2019-04-24 06:52 METAR KAFN 241052Z AUTO 00000KT 1/2SM FG VV002 08/07 A2967 RMK AO2 SLP054
                 T00830072 =
2019-04-24 06:28 METAR KAFN 241028Z AUTO 00000KT 1/2SM FG VV003 08/07 A2967 RMK AO2 T00830072 =
2019-04-24 06:19 METAR KAFN 241019Z AUTO 05003KT 1SM BR OVC002 08/07 A2967 RMK AO2 T00830072 =
2019-04-24 06:10 METAR KAFN 241010Z AUTO 03003KT 1 3/4SM BR OVC002 08/07 A2967 RMK AO2 T00830072
                 =
2019-04-24 05:52 METAR KAFN 240952Z AUTO 00000KT 2 1/2SM BR OVC002 08/07 A2967 RMK AO2 SLP051
                 T00830072 =
2019-04-24 04:52 METAR KAFN 240852Z AUTO 00000KT 8SM OVC003 09/08 A2967 RMK AO2 SLP051 T00890078
                 58013 =
2019-04-24 03:52 METAR KAFN 240752Z AUTO 00000KT 8SM OVC002 09/08 A2968 RMK AO2 SLP057 T00890078
                 =
2019-04-24 02:52 METAR KAFN 240652Z AUTO VRB04KT 10SM BKN004 OVC008 09/08 A2971 RMK AO2 SLP066
                 T00890078 =
2019-04-24 02:12 METAR KAFN 240612Z AUTO 00000KT 10SM OVC006 09/08 A2971 RMK AO2 CIG 003V008
                 T00890078 =
2019-04-24 02:01 METAR KAFN 240601Z AUTO 00000KT 10SM OVC005 09/08 A2971 RMK AO2 CIG 003V008
                 T00890078 =
2019-04-24 01:52 METAR KAFN 240552Z AUTO 00000KT 10SM OVC006 09/07 A2971 RMK AO2 RAE47 CIG
                 003V008 SLP066 P0002 60007 T00890072 10133 20089 58030 =
2019-04-24 00:52 METAR KAFN 240452Z AUTO 17006KT 10SM -RA BKN007 BKN060 OVC085 09/08 A2974 RMK
                 AO2 SLP077 P0002 T00940078 401830094 =
2019-04-23 23:52 METAR KAFN 240352Z AUTO VRB05KT 8SM -RA OVC006 10/08 A2978 RMK AO2 RAB17 SLP092
                 P0003 T01000083 =
2019-04-23 22:52 METAR KAFN 240252Z AUTO 00000KT 10SM OVC007 11/09 A2980 RMK AO2 RAB27E51 SLP097
                 P0000 60000 T01060089 58008 =
2019-04-23 21:52 METAR KAFN 240152Z AUTO 16005KT 10SM OVC009 11/09 A2981 RMK AO2 SLP103 T01110089
                 =
2019-04-23 20:52 METAR KAFN 240052Z AUTO VRB03KT 10SM OVC011 12/09 A2982 RMK AO2 SLP106 T01220094
                 =
2019-04-23 20:31 METAR KAFN 240031Z AUTO 00000KT 10SM BKN013 OVC110 12/09 A2983 RMK AO2 T01220094
                 =
2019-04-23 19:52 METAR KAFN 232352Z AUTO 16003KT 10SM CLR 13/09 A2982 RMK AO2 SLP106 T01330094
                 10183 20133 56006 =
2019-04-23 18:52 METAR KAFN 232252Z AUTO VRB03KT 10SM CLR 16/10 A2983 RMK AO2 SLP105 T01560100 =
2019-04-23 17:52 METAR KAFN 232152Z AUTO VRB06KT 10SM CLR 17/10 A2983 RMK AO2 SLP108 T01670100 =
2019-04-23 16:52 METAR KAFN 232052Z AUTO 15008KT 10SM SCT030 18/10 A2984 RMK AO2 SLP110 T01780100
                 56021 =
2019-04-23 15:52 METAR KAFN 231952Z AUTO 00000KT 10SM FEW025 18/10 A2985 RMK AO2 SLP114 T01780100
                 =
2019-04-23 14:52 METAR KAFN 231852Z AUTO 00000KT 10SM SCT021 16/09 A2989 RMK AO2 SLP126 T01560094
                 =

Support USWX by starting your Amazon purchase here.